sensor_id;sensor_type;location;lat;lon;timestamp;temperature;humidity
77727;SHT30;68312;53.502;10.030;2023-03-21T00:01:15;7.36;93.32
77727;SHT30;68312;53.502;10.030;2023-03-21T00:03:41;7.40;93.46
77727;SHT30;68312;53.502;10.030;2023-03-21T00:06:11;7.42;93.31
77727;SHT30;68312;53.502;10.030;2023-03-21T00:08:38;7.43;93.34
77727;SHT30;68312;53.502;10.030;2023-03-21T00:11:07;7.36;93.52
77727;SHT30;68312;53.502;10.030;2023-03-21T00:13:35;7.36;93.67
77727;SHT30;68312;53.502;10.030;2023-03-21T00:16:08;7.39;93.68
77727;SHT30;68312;53.502;10.030;2023-03-21T00:18:46;7.45;93.61
77727;SHT30;68312;53.502;10.030;2023-03-21T00:21:19;7.39;93.70
77727;SHT30;68312;53.502;10.030;2023-03-21T00:23:46;7.39;93.74
77727;SHT30;68312;53.502;10.030;2023-03-21T00:26:14;7.39;93.79
77727;SHT30;68312;53.502;10.030;2023-03-21T00:28:41;7.40;93.79
77727;SHT30;68312;53.502;10.030;2023-03-21T00:31:08;7.36;93.84
77727;SHT30;68312;53.502;10.030;2023-03-21T00:33:35;7.37;93.98
77727;SHT30;68312;53.502;10.030;2023-03-21T00:36:03;7.43;93.66
77727;SHT30;68312;53.502;10.030;2023-03-21T00:38:34;7.42;93.80
77727;SHT30;68312;53.502;10.030;2023-03-21T00:41:05;7.40;93.80
77727;SHT30;68312;53.502;10.030;2023-03-21T00:43:32;7.42;93.81
77727;SHT30;68312;53.502;10.030;2023-03-21T00:45:58;7.45;93.78
77727;SHT30;68312;53.502;10.030;2023-03-21T00:48:26;7.46;93.82
77727;SHT30;68312;53.502;10.030;2023-03-21T00:50:54;7.46;93.97
77727;SHT30;68312;53.502;10.030;2023-03-21T00:53:22;7.42;94.11
77727;SHT30;68312;53.502;10.030;2023-03-21T00:55:48;7.40;94.22
77727;SHT30;68312;53.502;10.030;2023-03-21T00:58:15;7.40;94.40
77727;SHT30;68312;53.502;10.030;2023-03-21T01:00:41;7.39;94.50
77727;SHT30;68312;53.502;10.030;2023-03-21T01:03:11;7.50;94.04
77727;SHT30;68312;53.502;10.030;2023-03-21T01:05:43;7.47;94.36
77727;SHT30;68312;53.502;10.030;2023-03-21T01:08:40;7.43;94.44
77727;SHT30;68312;53.502;10.030;2023-03-21T01:11:12;7.42;94.56
77727;SHT30;68312;53.502;10.030;2023-03-21T01:13:41;7.47;94.71
77727;SHT30;68312;53.502;10.030;2023-03-21T01:16:08;7.45;94.81
77727;SHT30;68312;53.502;10.030;2023-03-21T01:18:36;7.45;95.02
77727;SHT30;68312;53.502;10.030;2023-03-21T01:21:11;7.43;94.82
77727;SHT30;68312;53.502;10.030;2023-03-21T01:23:41;7.45;95.06
77727;SHT30;68312;53.502;10.030;2023-03-21T01:26:09;7.43;95.12
77727;SHT30;68312;53.502;10.030;2023-03-21T01:28:38;7.42;95.20
77727;SHT30;68312;53.502;10.030;2023-03-21T01:31:05;7.46;95.25
77727;SHT30;68312;53.502;10.030;2023-03-21T01:33:32;7.46;95.23
77727;SHT30;68312;53.502;10.030;2023-03-21T01:35:59;7.46;95.35
77727;SHT30;68312;53.502;10.030;2023-03-21T01:38:25;7.47;95.25
77727;SHT30;68312;53.502;10.030;2023-03-21T01:40:51;7.45;95.33
77727;SHT30;68312;53.502;10.030;2023-03-21T01:43:28;7.43;95.37
77727;SHT30;68312;53.502;10.030;2023-03-21T01:46:20;7.47;95.39
77727;SHT30;68312;53.502;10.030;2023-03-21T01:49:05;7.45;95.42
77727;SHT30;68312;53.502;10.030;2023-03-21T01:51:41;7.50;95.26
77727;SHT30;68312;53.502;10.030;2023-03-21T01:54:19;7.49;95.25
77727;SHT30;68312;53.502;10.030;2023-03-21T01:56:52;7.47;95.16
77727;SHT30;68312;53.502;10.030;2023-03-21T01:59:28;7.52;95.20
77727;SHT30;68312;53.502;10.030;2023-03-21T02:02:02;7.50;95.25
77727;SHT30;68312;53.502;10.030;2023-03-21T02:04:37;7.49;95.35
77727;SHT30;68312;53.502;10.030;2023-03-21T02:07:14;7.47;95.56
77727;SHT30;68312;53.502;10.030;2023-03-21T02:09:48;7.45;95.69
77727;SHT30;68312;53.502;10.030;2023-03-21T02:12:16;7.45;95.72
77727;SHT30;68312;53.502;10.030;2023-03-21T02:14:45;7.45;95.73
77727;SHT30;68312;53.502;10.030;2023-03-21T02:27:15;7.47;95.82
77727;SHT30;68312;53.502;10.030;2023-03-21T02:36:52;7.46;95.85
77727;SHT30;68312;53.502;10.030;2023-03-21T02:42:27;7.50;95.80
77727;SHT30;68312;53.502;10.030;2023-03-21T02:45:18;7.52;95.71
77727;SHT30;68312;53.502;10.030;2023-03-21T02:47:51;7.53;95.80
77727;SHT30;68312;53.502;10.030;2023-03-21T02:50:37;7.53;95.70
77727;SHT30;68312;53.502;10.030;2023-03-21T02:53:10;7.54;95.75
77727;SHT30;68312;53.502;10.030;2023-03-21T02:55:41;7.54;95.73
77727;SHT30;68312;53.502;10.030;2023-03-21T02:58:16;7.54;95.68
77727;SHT30;68312;53.502;10.030;2023-03-21T03:00:46;7.56;95.60
77727;SHT30;68312;53.502;10.030;2023-03-21T03:03:15;7.60;95.48
77727;SHT30;68312;53.502;10.030;2023-03-21T03:05:55;7.59;95.56
77727;SHT30;68312;53.502;10.030;2023-03-21T03:11:43;7.57;95.59
77727;SHT30;68312;53.502;10.030;2023-03-21T03:14:54;7.62;95.46
77727;SHT30;68312;53.502;10.030;2023-03-21T03:20:54;7.64;95.43
77727;SHT30;68312;53.502;10.030;2023-03-21T03:24:05;7.63;95.44
77727;SHT30;68312;53.502;10.030;2023-03-21T03:27:02;7.69;95.32
77727;SHT30;68312;53.502;10.030;2023-03-21T03:29:34;7.66;95.36
77727;SHT30;68312;53.502;10.030;2023-03-21T03:32:10;7.67;95.36
77727;SHT30;68312;53.502;10.030;2023-03-21T03:34:48;7.69;95.31
77727;SHT30;68312;53.502;10.030;2023-03-21T03:37:28;7.70;95.39
77727;SHT30;68312;53.502;10.030;2023-03-21T03:40:43;7.71;95.46
77727;SHT30;68312;53.502;10.030;2023-03-21T03:43:20;7.67;95.50
77727;SHT30;68312;53.502;10.030;2023-03-21T03:45:59;7.67;95.56
77727;SHT30;68312;53.502;10.030;2023-03-21T03:48:57;7.67;95.54
77727;SHT30;68312;53.502;10.030;2023-03-21T03:52:18;7.69;95.52
77727;SHT30;68312;53.502;10.030;2023-03-21T03:54:49;7.69;95.44
77727;SHT30;68312;53.502;10.030;2023-03-21T03:57:17;7.67;95.52
77727;SHT30;68312;53.502;10.030;2023-03-21T03:59:44;7.69;95.50
77727;SHT30;68312;53.502;10.030;2023-03-21T04:02:12;7.73;95.42
77727;SHT30;68312;53.502;10.030;2023-03-21T04:04:38;7.75;95.36
77727;SHT30;68312;53.502;10.030;2023-03-21T04:07:06;7.74;95.19
77727;SHT30;68312;53.502;10.030;2023-03-21T04:09:36;7.74;95.13
77727;SHT30;68312;53.502;10.030;2023-03-21T04:12:05;7.74;95.09
77727;SHT30;68312;53.502;10.030;2023-03-21T04:14:30;7.75;95.28
77727;SHT30;68312;53.502;10.030;2023-03-21T04:16:56;7.71;95.39
77727;SHT30;68312;53.502;10.030;2023-03-21T04:19:21;7.75;95.42
77727;SHT30;68312;53.502;10.030;2023-03-21T04:21:47;7.73;95.41
77727;SHT30;68312;53.502;10.030;2023-03-21T04:24:13;7.77;95.41
77727;SHT30;68312;53.502;10.030;2023-03-21T04:26:40;7.77;95.32
77727;SHT30;68312;53.502;10.030;2023-03-21T04:29:06;7.80;95.29
77727;SHT30;68312;53.502;10.030;2023-03-21T04:31:33;7.78;95.15
77727;SHT30;68312;53.502;10.030;2023-03-21T04:34:03;7.75;95.31
77727;SHT30;68312;53.502;10.030;2023-03-21T04:36:35;7.75;95.23
77727;SHT30;68312;53.502;10.030;2023-03-21T04:39:08;7.75;95.26
77727;SHT30;68312;53.502;10.030;2023-03-21T04:41:46;7.77;95.29
77727;SHT30;68312;53.502;10.030;2023-03-21T04:44:15;7.75;95.32
77727;SHT30;68312;53.502;10.030;2023-03-21T04:46:42;7.78;95.38
77727;SHT30;68312;53.502;10.030;2023-03-21T04:49:08;7.77;95.47
77727;SHT30;68312;53.502;10.030;2023-03-21T04:51:35;7.80;95.43
77727;SHT30;68312;53.502;10.030;2023-03-21T04:54:02;7.80;95.47
77727;SHT30;68312;53.502;10.030;2023-03-21T04:56:29;7.75;95.60
77727;SHT30;68312;53.502;10.030;2023-03-21T04:59:05;7.77;95.77
77727;SHT30;68312;53.502;10.030;2023-03-21T05:01:33;7.75;95.94
77727;SHT30;68312;53.502;10.030;2023-03-21T05:04:01;7.74;96.04
77727;SHT30;68312;53.502;10.030;2023-03-21T05:06:29;7.75;96.16
77727;SHT30;68312;53.502;10.030;2023-03-21T05:08:59;7.71;96.23
77727;SHT30;68312;53.502;10.030;2023-03-21T05:11:29;7.71;96.30
77727;SHT30;68312;53.502;10.030;2023-03-21T05:13:58;7.71;96.37
77727;SHT30;68312;53.502;10.030;2023-03-21T05:16:24;7.74;96.41
77727;SHT30;68312;53.502;10.030;2023-03-21T05:18:54;7.73;96.62
77727;SHT30;68312;53.502;10.030;2023-03-21T05:21:24;7.83;96.50
77727;SHT30;68312;53.502;10.030;2023-03-21T05:23:54;7.83;96.22
77727;SHT30;68312;53.502;10.030;2023-03-21T05:26:23;7.77;96.26
77727;SHT30;68312;53.502;10.030;2023-03-21T05:28:49;7.75;96.35
77727;SHT30;68312;53.502;10.030;2023-03-21T05:31:17;7.70;96.44
77727;SHT30;68312;53.502;10.030;2023-03-21T05:33:44;7.71;96.51
77727;SHT30;68312;53.502;10.030;2023-03-21T05:36:20;7.71;96.58
77727;SHT30;68312;53.502;10.030;2023-03-21T05:38:45;7.70;96.63
77727;SHT30;68312;53.502;10.030;2023-03-21T05:41:16;7.74;96.75
77727;SHT30;68312;53.502;10.030;2023-03-21T05:43:42;7.71;96.79
77727;SHT30;68312;53.502;10.030;2023-03-21T05:46:09;7.73;96.84
77727;SHT30;68312;53.502;10.030;2023-03-21T05:48:36;7.74;96.80
77727;SHT30;68312;53.502;10.030;2023-03-21T05:51:03;7.74;96.91
77727;SHT30;68312;53.502;10.030;2023-03-21T05:53:32;7.77;96.95
77727;SHT30;68312;53.502;10.030;2023-03-21T05:55:57;7.81;96.94
77727;SHT30;68312;53.502;10.030;2023-03-21T05:58:23;7.83;96.94
77727;SHT30;68312;53.502;10.030;2023-03-21T06:00:49;7.87;96.81
77727;SHT30;68312;53.502;10.030;2023-03-21T06:03:14;7.91;96.75
77727;SHT30;68312;53.502;10.030;2023-03-21T06:05:40;7.90;96.87
77727;SHT30;68312;53.502;10.030;2023-03-21T06:08:05;7.94;96.68
77727;SHT30;68312;53.502;10.030;2023-03-21T06:10:31;7.97;96.75
77727;SHT30;68312;53.502;10.030;2023-03-21T06:12:59;8.02;96.71
77727;SHT30;68312;53.502;10.030;2023-03-21T06:15:25;8.04;96.68
77727;SHT30;68312;53.502;10.030;2023-03-21T06:17:51;8.08;96.75
77727;SHT30;68312;53.502;10.030;2023-03-21T06:20:16;8.08;96.64
77727;SHT30;68312;53.502;10.030;2023-03-21T06:22:42;8.11;96.73
77727;SHT30;68312;53.502;10.030;2023-03-21T06:25:08;8.18;96.65
77727;SHT30;68312;53.502;10.030;2023-03-21T06:27:34;8.12;96.63
77727;SHT30;68312;53.502;10.030;2023-03-21T06:30:00;8.12;96.62
77727;SHT30;68312;53.502;10.030;2023-03-21T06:32:26;8.11;96.63
77727;SHT30;68312;53.502;10.030;2023-03-21T06:34:52;8.11;96.56
77727;SHT30;68312;53.502;10.030;2023-03-21T06:37:18;8.11;96.63
77727;SHT30;68312;53.502;10.030;2023-03-21T06:39:47;8.12;96.62
77727;SHT30;68312;53.502;10.030;2023-03-21T06:42:13;8.18;96.71
77727;SHT30;68312;53.502;10.030;2023-03-21T06:44:39;8.14;96.71
77727;SHT30;68312;53.502;10.030;2023-03-21T06:47:05;8.20;96.83
77727;SHT30;68312;53.502;10.030;2023-03-21T06:49:31;8.21;96.65
77727;SHT30;68312;53.502;10.030;2023-03-21T06:51:57;8.22;96.52
77727;SHT30;68312;53.502;10.030;2023-03-21T06:54:23;8.32;96.58
77727;SHT30;68312;53.502;10.030;2023-03-21T06:56:48;8.33;96.43
77727;SHT30;68312;53.502;10.030;2023-03-21T06:59:14;8.46;96.13
77727;SHT30;68312;53.502;10.030;2023-03-21T07:01:40;8.49;95.99
77727;SHT30;68312;53.502;10.030;2023-03-21T07:04:07;8.52;95.68
77727;SHT30;68312;53.502;10.030;2023-03-21T07:06:34;8.56;95.89
77727;SHT30;68312;53.502;10.030;2023-03-21T07:09:00;8.57;95.66
77727;SHT30;68312;53.502;10.030;2023-03-21T07:11:26;8.57;95.54
77727;SHT30;68312;53.502;10.030;2023-03-21T07:13:52;8.64;95.32
77727;SHT30;68312;53.502;10.030;2023-03-21T07:16:19;8.56;95.60
77727;SHT30;68312;53.502;10.030;2023-03-21T07:18:46;8.62;95.71
77727;SHT30;68312;53.502;10.030;2023-03-21T07:21:13;8.64;95.39
77727;SHT30;68312;53.502;10.030;2023-03-21T07:23:39;8.60;95.53
77727;SHT30;68312;53.502;10.030;2023-03-21T07:26:05;8.69;95.37
77727;SHT30;68312;53.502;10.030;2023-03-21T07:28:31;8.69;95.17
77727;SHT30;68312;53.502;10.030;2023-03-21T07:31:01;8.69;95.32
77727;SHT30;68312;53.502;10.030;2023-03-21T07:33:30;8.72;95.51
77727;SHT30;68312;53.502;10.030;2023-03-21T07:35:57;8.84;95.29
77727;SHT30;68312;53.502;10.030;2023-03-21T07:38:24;8.90;95.19
77727;SHT30;68312;53.502;10.030;2023-03-21T07:40:51;8.85;94.86
77727;SHT30;68312;53.502;10.030;2023-03-21T07:43:16;8.96;94.82
77727;SHT30;68312;53.502;10.030;2023-03-21T07:45:43;8.91;94.45
77727;SHT30;68312;53.502;10.030;2023-03-21T07:48:11;8.85;94.66
77727;SHT30;68312;53.502;10.030;2023-03-21T07:50:38;8.88;94.23
77727;SHT30;68312;53.502;10.030;2023-03-21T07:53:05;9.00;94.55
77727;SHT30;68312;53.502;10.030;2023-03-21T07:55:30;8.91;94.23
77727;SHT30;68312;53.502;10.030;2023-03-21T07:58:00;8.90;94.34
77727;SHT30;68312;53.502;10.030;2023-03-21T08:00:27;8.87;94.22
77727;SHT30;68312;53.502;10.030;2023-03-21T08:02:55;8.90;94.65
77727;SHT30;68312;53.502;10.030;2023-03-21T08:05:25;8.99;94.59
77727;SHT30;68312;53.502;10.030;2023-03-21T08:07:52;8.97;93.81
77727;SHT30;68312;53.502;10.030;2023-03-21T08:10:18;8.94;94.07
77727;SHT30;68312;53.502;10.030;2023-03-21T08:12:45;9.00;93.70
77727;SHT30;68312;53.502;10.030;2023-03-21T08:15:12;8.99;94.08
77727;SHT30;68312;53.502;10.030;2023-03-21T08:17:39;9.00;94.12
77727;SHT30;68312;53.502;10.030;2023-03-21T08:20:09;9.04;94.05
77727;SHT30;68312;53.502;10.030;2023-03-21T08:22:37;9.14;93.67
77727;SHT30;68312;53.502;10.030;2023-03-21T08:25:05;9.14;93.54
77727;SHT30;68312;53.502;10.030;2023-03-21T08:27:33;9.18;93.52
77727;SHT30;68312;53.502;10.030;2023-03-21T08:30:00;9.22;93.12
77727;SHT30;68312;53.502;10.030;2023-03-21T08:32:27;9.22;93.00
77727;SHT30;68312;53.502;10.030;2023-03-21T08:34:58;9.25;93.13
77727;SHT30;68312;53.502;10.030;2023-03-21T08:37:26;9.30;92.29
77727;SHT30;68312;53.502;10.030;2023-03-21T08:39:52;9.20;93.44
77727;SHT30;68312;53.502;10.030;2023-03-21T08:42:20;9.17;94.02
77727;SHT30;68312;53.502;10.030;2023-03-21T08:44:47;9.21;94.18
77727;SHT30;68312;53.502;10.030;2023-03-21T08:47:13;9.28;94.01
77727;SHT30;68312;53.502;10.030;2023-03-21T08:49:40;9.27;93.15
77727;SHT30;68312;53.502;10.030;2023-03-21T08:52:06;9.24;93.75
77727;SHT30;68312;53.502;10.030;2023-03-21T08:54:32;9.28;93.74
77727;SHT30;68312;53.502;10.030;2023-03-21T08:56:57;9.31;93.60
77727;SHT30;68312;53.502;10.030;2023-03-21T08:59:23;9.31;93.59
77727;SHT30;68312;53.502;10.030;2023-03-21T09:01:51;9.39;93.26
77727;SHT30;68312;53.502;10.030;2023-03-21T09:04:17;9.32;93.04
77727;SHT30;68312;53.502;10.030;2023-03-21T09:06:43;9.38;92.91
77727;SHT30;68312;53.502;10.030;2023-03-21T09:09:13;9.48;93.21
77727;SHT30;68312;53.502;10.030;2023-03-21T09:11:39;9.58;92.56
77727;SHT30;68312;53.502;10.030;2023-03-21T09:14:05;9.62;92.37
77727;SHT30;68312;53.502;10.030;2023-03-21T09:16:30;9.68;91.29
77727;SHT30;68312;53.502;10.030;2023-03-21T09:18:57;9.73;92.37
77727;SHT30;68312;53.502;10.030;2023-03-21T09:21:25;9.80;91.09
77727;SHT30;68312;53.502;10.030;2023-03-21T09:23:53;9.78;91.49
77727;SHT30;68312;53.502;10.030;2023-03-21T09:26:23;9.83;91.05
77727;SHT30;68312;53.502;10.030;2023-03-21T09:28:49;9.79;91.46
77727;SHT30;68312;53.502;10.030;2023-03-21T09:31:16;9.80;90.95
77727;SHT30;68312;53.502;10.030;2023-03-21T09:33:48;9.86;91.10
77727;SHT30;68312;53.502;10.030;2023-03-21T09:36:16;9.86;90.71
77727;SHT30;68312;53.502;10.030;2023-03-21T09:38:44;9.92;90.76
77727;SHT30;68312;53.502;10.030;2023-03-21T09:44:47;10.03;91.30
77727;SHT30;68312;53.502;10.030;2023-03-21T09:47:29;9.99;90.68
77727;SHT30;68312;53.502;10.030;2023-03-21T09:50:13;10.07;90.99
77727;SHT30;68312;53.502;10.030;2023-03-21T09:52:52;10.07;91.38
77727;SHT30;68312;53.502;10.030;2023-03-21T09:55:25;10.01;91.63
77727;SHT30;68312;53.502;10.030;2023-03-21T10:01:19;10.04;91.23
77727;SHT30;68312;53.502;10.030;2023-03-21T10:04:10;10.07;91.68
77727;SHT30;68312;53.502;10.030;2023-03-21T10:06:42;10.13;92.01
77727;SHT30;68312;53.502;10.030;2023-03-21T10:09:19;10.10;92.15
77727;SHT30;68312;53.502;10.030;2023-03-21T10:12:01;10.11;92.08
77727;SHT30;68312;53.502;10.030;2023-03-21T10:14:45;10.06;92.07
77727;SHT30;68312;53.502;10.030;2023-03-21T10:17:40;10.01;92.30
77727;SHT30;68312;53.502;10.030;2023-03-21T10:22:37;9.99;92.55
77727;SHT30;68312;53.502;10.030;2023-03-21T10:25:05;10.04;92.58
77727;SHT30;68312;53.502;10.030;2023-03-21T10:27:34;10.06;92.23
77727;SHT30;68312;53.502;10.030;2023-03-21T10:30:08;10.07;92.44
77727;SHT30;68312;53.502;10.030;2023-03-21T10:32:48;10.11;92.70
77727;SHT30;68312;53.502;10.030;2023-03-21T10:35:14;10.07;92.65
77727;SHT30;68312;53.502;10.030;2023-03-21T10:37:40;10.24;92.53
77727;SHT30;68312;53.502;10.030;2023-03-21T10:40:09;10.14;92.33
77727;SHT30;68312;53.502;10.030;2023-03-21T10:42:40;10.17;92.54
77727;SHT30;68312;53.502;10.030;2023-03-21T10:45:15;10.25;92.56
77727;SHT30;68312;53.502;10.030;2023-03-21T10:47:47;10.29;92.81
77727;SHT30;68312;53.502;10.030;2023-03-21T10:50:17;10.38;91.77
77727;SHT30;68312;53.502;10.030;2023-03-21T10:52:55;10.36;91.18
77727;SHT30;68312;53.502;10.030;2023-03-21T10:55:33;10.33;91.43
77727;SHT30;68312;53.502;10.030;2023-03-21T10:58:12;10.34;91.51
77727;SHT30;68312;53.502;10.030;2023-03-21T11:00:45;10.24;91.24
77727;SHT30;68312;53.502;10.030;2023-03-21T11:03:26;10.16;91.45
77727;SHT30;68312;53.502;10.030;2023-03-21T11:06:01;10.13;91.79
77727;SHT30;68312;53.502;10.030;2023-03-21T11:08:38;10.23;91.46
77727;SHT30;68312;53.502;10.030;2023-03-21T11:11:09;10.18;91.73
77727;SHT30;68312;53.502;10.030;2023-03-21T11:13:44;10.20;92.24
77727;SHT30;68312;53.502;10.030;2023-03-21T11:16:22;10.13;92.45
77727;SHT30;68312;53.502;10.030;2023-03-21T11:18:51;10.16;92.23
77727;SHT30;68312;53.502;10.030;2023-03-21T11:21:24;10.16;92.24
77727;SHT30;68312;53.502;10.030;2023-03-21T11:23:55;10.20;92.46
77727;SHT30;68312;53.502;10.030;2023-03-21T11:26:30;10.33;92.31
77727;SHT30;68312;53.502;10.030;2023-03-21T11:29:25;10.36;92.53
77727;SHT30;68312;53.502;10.030;2023-03-21T11:31:51;10.34;92.63
77727;SHT30;68312;53.502;10.030;2023-03-21T11:37:52;10.44;92.07
77727;SHT30;68312;53.502;10.030;2023-03-21T11:40:31;10.45;92.39
77727;SHT30;68312;53.502;10.030;2023-03-21T11:43:02;10.47;92.69
77727;SHT30;68312;53.502;10.030;2023-03-21T11:46:13;10.55;92.56
77727;SHT30;68312;53.502;10.030;2023-03-21T11:48:45;10.57;92.05
77727;SHT30;68312;53.502;10.030;2023-03-21T11:51:42;10.51;92.35
77727;SHT30;68312;53.502;10.030;2023-03-21T11:57:57;10.41;91.59
77727;SHT30;68312;53.502;10.030;2023-03-21T12:01:01;10.57;92.15
77727;SHT30;68312;53.502;10.030;2023-03-21T12:09:45;10.98;89.68
77727;SHT30;68312;53.502;10.030;2023-03-21T12:15:36;10.92;88.12
77727;SHT30;68312;53.502;10.030;2023-03-21T12:21:45;10.92;88.61
77727;SHT30;68312;53.502;10.030;2023-03-21T12:24:38;10.98;87.86
77727;SHT30;68312;53.502;10.030;2023-03-21T12:28:07;10.95;87.53
77727;SHT30;68312;53.502;10.030;2023-03-21T12:40:08;11.00;87.92
77727;SHT30;68312;53.502;10.030;2023-03-21T12:43:32;11.02;87.64
77727;SHT30;68312;53.502;10.030;2023-03-21T12:46:16;10.92;87.95
77727;SHT30;68312;53.502;10.030;2023-03-21T12:48:58;10.95;88.18
77727;SHT30;68312;53.502;10.030;2023-03-21T12:51:35;10.85;88.18
77727;SHT30;68312;53.502;10.030;2023-03-21T12:54:36;10.76;89.58
77727;SHT30;68312;53.502;10.030;2023-03-21T13:00:17;10.71;90.42
77727;SHT30;68312;53.502;10.030;2023-03-21T13:03:01;10.58;90.49
77727;SHT30;68312;53.502;10.030;2023-03-21T13:05:38;10.61;89.73
77727;SHT30;68312;53.502;10.030;2023-03-21T13:11:23;10.64;91.04
77727;SHT30;68312;53.502;10.030;2023-03-21T13:14:14;10.62;90.32
77727;SHT30;68312;53.502;10.030;2023-03-21T13:17:05;10.68;89.73
77727;SHT30;68312;53.502;10.030;2023-03-21T13:19:50;10.68;89.90
77727;SHT30;68312;53.502;10.030;2023-03-21T13:22:27;10.64;89.65
77727;SHT30;68312;53.502;10.030;2023-03-21T13:25:03;10.57;90.64
77727;SHT30;68312;53.502;10.030;2023-03-21T13:27:42;10.57;90.83
77727;SHT30;68312;53.502;10.030;2023-03-21T13:30:23;10.50;90.87
77727;SHT30;68312;53.502;10.030;2023-03-21T13:33:06;10.47;91.52
77727;SHT30;68312;53.502;10.030;2023-03-21T13:35:39;10.41;92.07
77727;SHT30;68312;53.502;10.030;2023-03-21T13:38:27;10.44;91.85
77727;SHT30;68312;53.502;10.030;2023-03-21T13:41:01;10.38;92.12
77727;SHT30;68312;53.502;10.030;2023-03-21T13:46:43;10.48;92.24
77727;SHT30;68312;53.502;10.030;2023-03-21T13:49:36;10.55;91.68
77727;SHT30;68312;53.502;10.030;2023-03-21T13:54:56;10.67;92.13
77727;SHT30;68312;53.502;10.030;2023-03-21T13:57:45;10.58;90.85
77727;SHT30;68312;53.502;10.030;2023-03-21T14:00:29;10.62;91.37
77727;SHT30;68312;53.502;10.030;2023-03-21T14:03:07;10.65;91.34
77727;SHT30;68312;53.502;10.030;2023-03-21T14:05:38;10.65;91.03
77727;SHT30;68312;53.502;10.030;2023-03-21T14:08:07;10.65;90.64
77727;SHT30;68312;53.502;10.030;2023-03-21T14:10:44;10.61;91.51
77727;SHT30;68312;53.502;10.030;2023-03-21T14:13:19;10.57;91.70
77727;SHT30;68312;53.502;10.030;2023-03-21T14:16:09;10.55;92.12
77727;SHT30;68312;53.502;10.030;2023-03-21T14:18:44;10.55;92.34
77727;SHT30;68312;53.502;10.030;2023-03-21T14:21:28;10.54;91.98
77727;SHT30;68312;53.502;10.030;2023-03-21T14:23:58;10.48;91.76
77727;SHT30;68312;53.502;10.030;2023-03-21T14:26:44;10.41;92.10
77727;SHT30;68312;53.502;10.030;2023-03-21T14:29:22;10.42;92.36
77727;SHT30;68312;53.502;10.030;2023-03-21T14:31:58;10.41;92.59
77727;SHT30;68312;53.502;10.030;2023-03-21T14:34:31;10.33;93.04
77727;SHT30;68312;53.502;10.030;2023-03-21T14:36:59;10.38;92.16
77727;SHT30;68312;53.502;10.030;2023-03-21T14:39:32;10.44;92.08
77727;SHT30;68312;53.502;10.030;2023-03-21T14:42:11;10.45;92.94
77727;SHT30;68312;53.502;10.030;2023-03-21T14:44:41;10.41;92.43
77727;SHT30;68312;53.502;10.030;2023-03-21T14:47:17;10.41;92.14
77727;SHT30;68312;53.502;10.030;2023-03-21T14:49:47;10.38;92.04
77727;SHT30;68312;53.502;10.030;2023-03-21T14:52:22;10.42;91.79
77727;SHT30;68312;53.502;10.030;2023-03-21T14:54:51;10.34;91.87
77727;SHT30;68312;53.502;10.030;2023-03-21T14:57:24;10.27;92.50
77727;SHT30;68312;53.502;10.030;2023-03-21T14:59:58;10.21;93.01
77727;SHT30;68312;53.502;10.030;2023-03-21T15:02:32;10.21;93.44
77727;SHT30;68312;53.502;10.030;2023-03-21T15:05:21;10.27;93.85
77727;SHT30;68312;53.502;10.030;2023-03-21T15:07:55;10.24;93.50
77727;SHT30;68312;53.502;10.030;2023-03-21T15:10:26;10.25;93.19
77727;SHT30;68312;53.502;10.030;2023-03-21T15:13:01;10.20;93.21
77727;SHT30;68312;53.502;10.030;2023-03-21T15:15:39;10.23;93.16
77727;SHT30;68312;53.502;10.030;2023-03-21T15:18:06;10.25;93.65
77727;SHT30;68312;53.502;10.030;2023-03-21T15:20:37;10.29;92.95
77727;SHT30;68312;53.502;10.030;2023-03-21T15:23:26;10.25;93.34
77727;SHT30;68312;53.502;10.030;2023-03-21T15:26:03;10.21;93.17
77727;SHT30;68312;53.502;10.030;2023-03-21T15:28:33;10.24;93.07
77727;SHT30;68312;53.502;10.030;2023-03-21T15:30:59;10.29;92.23
77727;SHT30;68312;53.502;10.030;2023-03-21T15:33:26;10.21;92.04
77727;SHT30;68312;53.502;10.030;2023-03-21T15:35:55;10.17;91.72
77727;SHT30;68312;53.502;10.030;2023-03-21T15:38:40;10.20;91.21
77727;SHT30;68312;53.502;10.030;2023-03-21T15:43:44;10.17;92.22
77727;SHT30;68312;53.502;10.030;2023-03-21T15:52:11;10.23;91.45
77727;SHT30;68312;53.502;10.030;2023-03-21T15:54:48;10.20;90.86
77727;SHT30;68312;53.502;10.030;2023-03-21T15:57:25;10.06;90.64
77727;SHT30;68312;53.502;10.030;2023-03-21T16:03:06;10.00;89.19
77727;SHT30;68312;53.502;10.030;2023-03-21T16:05:41;9.96;90.46
77727;SHT30;68312;53.502;10.030;2023-03-21T16:08:25;9.89;90.79
77727;SHT30;68312;53.502;10.030;2023-03-21T16:10:52;9.79;90.27
77727;SHT30;68312;53.502;10.030;2023-03-21T16:13:18;9.78;91.10
77727;SHT30;68312;53.502;10.030;2023-03-21T16:15:44;9.73;90.96
77727;SHT30;68312;53.502;10.030;2023-03-21T16:18:14;9.73;90.83
77727;SHT30;68312;53.502;10.030;2023-03-21T16:20:43;9.69;91.47
77727;SHT30;68312;53.502;10.030;2023-03-21T16:23:12;9.63;91.54
77727;SHT30;68312;53.502;10.030;2023-03-21T16:25:41;9.65;91.94
77727;SHT30;68312;53.502;10.030;2023-03-21T16:28:17;9.66;92.21
77727;SHT30;68312;53.502;10.030;2023-03-21T16:30:43;9.62;91.78
77727;SHT30;68312;53.502;10.030;2023-03-21T16:33:10;9.59;91.82
77727;SHT30;68312;53.502;10.030;2023-03-21T16:35:40;9.63;91.86
77727;SHT30;68312;53.502;10.030;2023-03-21T16:38:06;9.58;92.15
77727;SHT30;68312;53.502;10.030;2023-03-21T16:40:38;9.56;92.33
77727;SHT30;68312;53.502;10.030;2023-03-21T16:43:06;9.56;91.58
77727;SHT30;68312;53.502;10.030;2023-03-21T16:45:32;9.52;91.90
77727;SHT30;68312;53.502;10.030;2023-03-21T16:47:58;9.51;92.18
77727;SHT30;68312;53.502;10.030;2023-03-21T16:50:40;9.46;92.06
77727;SHT30;68312;53.502;10.030;2023-03-21T16:53:06;9.42;92.21
77727;SHT30;68312;53.502;10.030;2023-03-21T16:55:35;9.39;92.50
77727;SHT30;68312;53.502;10.030;2023-03-21T16:58:02;9.34;92.58
77727;SHT30;68312;53.502;10.030;2023-03-21T17:00:29;9.31;92.53
77727;SHT30;68312;53.502;10.030;2023-03-21T17:03:00;9.32;92.95
77727;SHT30;68312;53.502;10.030;2023-03-21T17:05:28;9.27;93.37
77727;SHT30;68312;53.502;10.030;2023-03-21T17:07:57;9.24;93.71
77727;SHT30;68312;53.502;10.030;2023-03-21T17:10:29;9.18;93.94
77727;SHT30;68312;53.502;10.030;2023-03-21T17:12:56;9.17;94.08
77727;SHT30;68312;53.502;10.030;2023-03-21T17:15:22;9.13;94.27
77727;SHT30;68312;53.502;10.030;2023-03-21T17:17:48;9.10;94.44
77727;SHT30;68312;53.502;10.030;2023-03-21T17:20:27;9.13;94.50
77727;SHT30;68312;53.502;10.030;2023-03-21T17:22:56;9.08;94.45
77727;SHT30;68312;53.502;10.030;2023-03-21T17:25:22;9.05;94.65
77727;SHT30;68312;53.502;10.030;2023-03-21T17:27:49;9.07;94.65